createdAt,value
2022-12-08T00:02:32.192Z,93.40
2022-12-08T00:05:53.285Z,94.72
2022-12-08T00:09:14.031Z,93.80
2022-12-08T00:12:16.759Z,97.21
2022-12-08T00:15:18.972Z,98.49
2022-12-08T00:18:21.471Z,96.69
2022-12-08T00:21:23.671Z,96.42
2022-12-08T00:24:32.502Z,96.80
2022-12-08T00:27:34.662Z,97.99
2022-12-08T00:30:40.261Z,95.99
2022-12-08T00:33:42.435Z,94.93
2022-12-08T00:36:45.115Z,95.19
2022-12-08T00:39:47.286Z,95.75
2022-12-08T00:42:49.799Z,95.01
2022-12-08T00:45:52.084Z,95.35
2022-12-08T00:48:54.589Z,97.90
2022-12-08T00:51:56.990Z,98.35
2022-12-08T00:54:59.549Z,97.21
2022-12-08T00:58:01.701Z,95.57
2022-12-08T01:01:10.796Z,95.50
2022-12-08T01:04:15.975Z,95.31
2022-12-08T01:07:18.502Z,94.97
2022-12-08T01:10:22.050Z,95.19
2022-12-08T01:13:24.565Z,95.10
2022-12-08T01:16:29.252Z,93.04
2022-12-08T01:19:31.926Z,92.47
2022-12-08T01:22:35.323Z,94.95
2022-12-08T01:25:38.052Z,96.29
2022-12-08T01:28:40.912Z,95.62
2022-12-08T01:31:43.635Z,97.57
2022-12-08T01:34:45.754Z,98.66
2022-12-08T01:37:50.233Z,100.00
2022-12-08T01:40:52.392Z,100.00
2022-12-08T01:44:08.383Z,100.00
2022-12-08T01:47:12.062Z,100.00
2022-12-08T01:50:18.206Z,100.00
2022-12-08T01:53:26.647Z,100.00
2022-12-08T01:56:40.543Z,100.00
2022-12-08T01:59:48.601Z,100.00
2022-12-08T02:03:04.816Z,100.00
2022-12-08T02:06:08.209Z,98.53
2022-12-08T02:09:10.987Z,96.97
2022-12-08T02:12:13.779Z,97.83
2022-12-08T02:15:16.349Z,97.49
2022-12-08T02:18:40.858Z,95.99
2022-12-08T02:22:02.848Z,95.99
2022-12-08T02:25:17.608Z,96.37
2022-12-08T02:28:50.539Z,97.50
2022-12-08T02:32:02.537Z,98.84
2022-12-08T02:35:28.235Z,96.71
2022-12-08T02:38:47.798Z,97.10
2022-12-08T02:42:22.960Z,98.35
2022-12-08T02:45:33.878Z,99.65
2022-12-08T02:48:36.103Z,99.15
2022-12-08T02:51:38.598Z,97.52
2022-12-08T02:54:46.493Z,97.17
2022-12-08T02:57:55.463Z,96.72
2022-12-08T03:01:31.972Z,95.62
2022-12-08T03:04:46.990Z,93.81
2022-12-08T03:08:15.277Z,94.37
2022-12-08T03:11:24.458Z,94.71
2022-12-08T03:14:28.396Z,95.47
2022-12-08T03:17:32.009Z,96.70
2022-12-08T03:20:35.271Z,96.55
2022-12-08T03:23:39.410Z,96.78
2022-12-08T03:26:46.445Z,94.70
2022-12-08T03:29:53.297Z,98.90
2022-12-08T03:33:04.523Z,98.69
2022-12-08T03:36:09.368Z,98.31
2022-12-08T03:39:11.679Z,97.89
2022-12-08T03:42:14.171Z,97.95
2022-12-08T03:45:16.339Z,97.41
2022-12-08T03:48:18.797Z,96.96
2022-12-08T03:51:21.252Z,93.91
2022-12-08T03:54:24.390Z,94.64
2022-12-08T03:57:26.589Z,95.16
2022-12-08T04:00:29.152Z,98.04
2022-12-08T04:03:31.637Z,98.96
2022-12-08T04:06:33.841Z,98.81
2022-12-08T04:09:36.269Z,98.74
2022-12-08T04:12:38.435Z,96.00
2022-12-08T04:15:45.143Z,95.19
2022-12-08T04:18:47.389Z,95.24
2022-12-08T04:21:49.886Z,95.16
2022-12-08T04:24:52.044Z,95.31
2022-12-08T04:27:54.591Z,92.92
2022-12-08T04:30:56.842Z,94.66
2022-12-08T04:33:59.337Z,94.81
2022-12-08T04:37:01.472Z,95.03
2022-12-08T04:40:04.694Z,96.98
2022-12-08T04:43:07.070Z,94.79
2022-12-08T04:46:09.577Z,93.84
2022-12-08T04:49:11.898Z,93.04
2022-12-08T04:52:14.446Z,93.08
2022-12-08T04:55:17.777Z,92.96
2022-12-08T04:58:20.757Z,93.32
2022-12-08T05:01:22.996Z,92.40
2022-12-08T05:04:25.598Z,92.43
2022-12-08T05:07:27.981Z,92.16
2022-12-08T05:10:30.603Z,90.82
2022-12-08T05:13:33.034Z,91.89
2022-12-08T05:16:37.055Z,93.22
2022-12-08T05:19:39.272Z,92.97
2022-12-08T05:22:41.721Z,96.16
2022-12-08T05:25:43.825Z,96.32
2022-12-08T05:28:46.264Z,95.81
2022-12-08T05:31:48.517Z,95.22
2022-12-08T05:34:51.370Z,93.91
2022-12-08T05:37:53.997Z,95.73
2022-12-08T05:40:56.421Z,94.49
2022-12-08T05:43:58.665Z,91.87
2022-12-08T05:47:01.283Z,91.64
2022-12-08T05:50:04.243Z,93.47
2022-12-08T05:53:06.924Z,94.07
2022-12-08T05:56:09.020Z,94.04
2022-12-08T05:59:11.511Z,92.16
2022-12-08T06:02:13.958Z,91.18
2022-12-08T06:05:16.555Z,92.28
2022-12-08T06:08:18.817Z,92.56
2022-12-08T06:11:28.226Z,92.65
2022-12-08T06:14:30.393Z,92.86
2022-12-08T06:17:32.876Z,91.17
2022-12-08T06:20:35.349Z,93.47
2022-12-08T06:23:38.864Z,94.62
2022-12-08T06:26:41.504Z,94.87
2022-12-08T06:29:44.385Z,93.21
2022-12-08T06:32:46.522Z,92.47
2022-12-08T06:35:49.093Z,92.69
2022-12-08T06:38:51.734Z,92.59
2022-12-08T06:42:12.877Z,93.37
2022-12-08T06:45:17.394Z,92.29
2022-12-08T06:48:19.791Z,92.96
2022-12-08T06:51:23.522Z,93.73
2022-12-08T06:54:26.524Z,94.93
2022-12-08T06:57:28.845Z,94.11
2022-12-08T07:00:31.735Z,94.38
2022-12-08T07:03:35.967Z,94.98
2022-12-08T07:06:38.607Z,94.88
2022-12-08T07:09:40.818Z,94.02
2022-12-08T07:12:45.317Z,93.88
2022-12-08T07:15:47.532Z,95.02
2022-12-08T07:18:50.189Z,94.36
2022-12-08T07:21:52.312Z,94.93
2022-12-08T07:24:54.757Z,95.02
2022-12-08T07:27:56.960Z,94.36
2022-12-08T07:30:59.869Z,92.54
2022-12-08T07:34:02.160Z,93.12
2022-12-08T07:37:04.612Z,94.73
2022-12-08T07:40:09.378Z,93.28
2022-12-08T07:43:12.081Z,92.10
2022-12-08T07:46:16.501Z,92.42
2022-12-08T07:49:19.134Z,92.21
2022-12-08T07:52:21.303Z,91.90
2022-12-08T07:55:23.887Z,91.77
2022-12-08T07:58:26.321Z,91.38
2022-12-08T08:01:31.581Z,92.36
2022-12-08T08:04:34.069Z,93.05
2022-12-08T08:07:37.228Z,90.90
2022-12-08T08:10:39.728Z,90.68
2022-12-08T08:13:41.873Z,91.29
2022-12-08T08:16:46.838Z,89.52
2022-12-08T08:19:49.121Z,87.53
2022-12-08T08:22:52.453Z,87.81
2022-12-08T08:25:55.040Z,88.43
2022-12-08T08:28:59.073Z,87.63
2022-12-08T08:32:01.331Z,86.86
2022-12-08T08:35:04.869Z,83.81
2022-12-08T08:38:07.074Z,84.79
2022-12-08T08:41:10.899Z,85.03
2022-12-08T08:44:15.034Z,84.71
2022-12-08T08:47:17.539Z,83.73
2022-12-08T08:50:19.857Z,82.43
2022-12-08T08:53:23.130Z,81.73
2022-12-08T08:56:25.603Z,83.05
2022-12-08T08:59:28.549Z,80.86
2022-12-08T09:02:30.853Z,79.64
2022-12-08T09:05:33.332Z,79.10
2022-12-08T09:08:35.381Z,77.30
2022-12-08T09:11:38.193Z,78.44
2022-12-08T09:14:40.327Z,75.79
2022-12-08T09:17:42.715Z,74.76
2022-12-08T09:20:44.809Z,76.22
2022-12-08T09:23:47.172Z,75.77
2022-12-08T09:26:49.446Z,78.00
2022-12-08T09:29:51.845Z,76.26
2022-12-08T09:32:54.330Z,76.88
2022-12-08T09:35:56.870Z,75.54
2022-12-08T09:38:58.987Z,75.25
2022-12-08T09:42:04.789Z,76.48
2022-12-08T09:45:14.165Z,76.12
2022-12-08T09:48:19.995Z,75.73
2022-12-08T09:51:28.531Z,76.07
2022-12-08T09:54:35.972Z,76.80
2022-12-08T09:57:38.825Z,76.26
2022-12-08T10:00:41.298Z,76.16
2022-12-08T10:03:43.828Z,74.08
2022-12-08T10:07:04.648Z,74.02
2022-12-08T10:10:33.992Z,75.46
2022-12-08T10:14:07.182Z,73.24
2022-12-08T10:17:24.872Z,72.87
2022-12-08T10:20:35.978Z,73.77
2022-12-08T10:23:41.094Z,73.16
2022-12-08T10:26:43.455Z,71.86
2022-12-08T10:29:45.977Z,72.18
2022-12-08T10:32:49.947Z,71.02
2022-12-08T10:35:56.269Z,71.29
2022-12-08T10:38:58.596Z,69.90
2022-12-08T10:42:15.538Z,70.42
2022-12-08T10:45:28.068Z,68.79
2022-12-08T10:48:34.253Z,70.01
2022-12-08T10:51:41.884Z,70.16
2022-12-08T10:54:44.593Z,70.94
2022-12-08T10:57:50.716Z,71.84
2022-12-08T11:01:00.852Z,72.49
2022-12-08T11:04:06.326Z,71.46
2022-12-08T11:07:13.720Z,71.22
2022-12-08T11:10:18.960Z,71.19
2022-12-08T11:13:23.669Z,71.67
2022-12-08T11:16:25.992Z,72.30
2022-12-08T11:19:28.860Z,70.91
2022-12-08T11:22:39.741Z,68.31
2022-12-08T11:25:42.404Z,69.12
2022-12-08T11:28:44.747Z,69.41
2022-12-08T11:31:53.164Z,70.05
2022-12-08T11:35:02.537Z,70.51
2022-12-08T11:38:21.053Z,72.16
2022-12-08T11:41:36.674Z,73.32
2022-12-08T11:44:47.581Z,73.16
2022-12-08T11:48:06.133Z,72.33
2022-12-08T11:51:27.065Z,71.64
2022-12-08T11:54:58.232Z,71.21
2022-12-08T11:58:24.242Z,72.40
2022-12-08T12:01:26.960Z,72.39
2022-12-08T12:04:42.310Z,69.84
2022-12-08T12:07:59.643Z,70.03
2022-12-08T12:11:40.690Z,69.20
2022-12-08T12:15:07.447Z,68.81
2022-12-08T12:18:24.958Z,69.18
2022-12-08T12:21:36.242Z,68.33
2022-12-08T12:24:39.388Z,67.65
2022-12-08T12:27:41.882Z,69.18
2022-12-08T12:30:54.043Z,68.96
2022-12-08T12:34:06.547Z,69.29
2022-12-08T12:37:13.492Z,70.23
2022-12-08T12:40:20.906Z,70.83
2022-12-08T12:43:30.637Z,70.81
2022-12-08T12:46:54.491Z,70.16
2022-12-08T12:50:35.071Z,70.15
2022-12-08T12:53:37.137Z,71.18
2022-12-08T12:56:52.890Z,72.80
2022-12-08T12:59:56.189Z,72.17
2022-12-08T13:02:59.498Z,71.98
2022-12-08T13:06:02.759Z,72.15
2022-12-08T13:09:07.264Z,70.59
2022-12-08T13:12:23.022Z,70.82
2022-12-08T13:15:25.462Z,71.56
2022-12-08T13:18:41.860Z,71.00
2022-12-08T13:21:44.652Z,72.18
2022-12-08T13:24:46.885Z,71.23
2022-12-08T13:27:54.306Z,71.14
2022-12-08T13:31:00.894Z,72.09
2022-12-08T13:34:13.428Z,71.34
2022-12-08T13:37:52.373Z,72.13
2022-12-08T13:40:58.505Z,71.66
2022-12-08T13:45:03.706Z,71.72
2022-12-08T13:48:13.794Z,72.23
2022-12-08T13:53:22.295Z,73.03
2022-12-08T13:56:05.573Z,73.20
2022-12-08T13:58:03.675Z,73.49
2022-12-08T14:01:12.468Z,74.07
2022-12-08T14:04:42.621Z,72.53
2022-12-08T14:07:42.786Z,73.24
2022-12-08T14:10:47.511Z,74.54
2022-12-08T14:13:51.401Z,73.46
2022-12-08T14:16:57.582Z,73.34
2022-12-08T14:20:19.675Z,73.60
2022-12-08T14:23:22.121Z,76.29
2022-12-08T14:26:24.302Z,80.97
2022-12-08T14:29:45.472Z,81.66
2022-12-08T14:32:50.137Z,81.98
2022-12-08T14:35:55.918Z,81.15
2022-12-08T14:38:58.192Z,78.58
2022-12-08T14:42:00.998Z,77.06
2022-12-08T14:45:11.574Z,76.99
2022-12-08T14:48:25.875Z,77.39
2022-12-08T14:51:32.030Z,76.48
2022-12-08T14:54:34.686Z,76.01
2022-12-08T14:57:37.171Z,77.01
2022-12-08T15:00:46.322Z,77.91
2022-12-08T15:03:51.472Z,78.21
2022-12-08T15:07:02.799Z,77.88
2022-12-08T15:10:17.065Z,78.70
2022-12-08T15:13:20.994Z,77.65
2022-12-08T15:16:32.138Z,76.52
2022-12-08T15:19:34.657Z,76.94
2022-12-08T15:22:36.773Z,76.90
2022-12-08T15:25:39.260Z,76.29
2022-12-08T15:28:41.508Z,76.19
2022-12-08T15:31:44.071Z,77.13
2022-12-08T15:34:46.600Z,78.89
2022-12-08T15:37:49.103Z,80.05
2022-12-08T15:40:52.561Z,79.58
2022-12-08T15:43:54.993Z,77.78
2022-12-08T15:46:59.146Z,78.50
2022-12-08T15:50:04.593Z,78.31
2022-12-08T15:53:10.391Z,78.43
2022-12-08T15:56:29.349Z,78.67
2022-12-08T15:59:31.920Z,78.04
2022-12-08T16:02:49.467Z,78.64
2022-12-08T16:06:50.813Z,78.70
2022-12-08T16:09:34.542Z,77.42
2022-12-08T16:16:21.677Z,78.30
2022-12-08T16:19:24.313Z,82.02
2022-12-08T16:22:54.198Z,79.23
2022-12-08T16:26:20.381Z,79.71
2022-12-08T16:29:19.802Z,81.88
2022-12-08T16:32:23.684Z,82.40
2022-12-08T16:35:25.883Z,81.49
2022-12-08T16:38:28.501Z,82.08
2022-12-08T16:41:49.479Z,81.91
2022-12-08T16:44:51.978Z,82.97
2022-12-08T16:47:59.285Z,82.91
2022-12-08T16:51:04.480Z,83.33
2022-12-08T16:54:06.598Z,83.51
2022-12-08T16:57:09.210Z,83.96
2022-12-08T17:00:14.769Z,82.81
2022-12-08T17:03:17.624Z,83.68
2022-12-08T17:06:19.998Z,82.71
2022-12-08T17:09:22.463Z,83.86
2022-12-08T17:12:24.887Z,83.62
2022-12-08T17:15:27.355Z,83.51
2022-12-08T17:18:29.490Z,84.07
2022-12-08T17:21:32.546Z,84.18
2022-12-08T17:24:34.740Z,82.35
2022-12-08T17:27:38.010Z,83.11
2022-12-08T17:30:40.145Z,83.21
2022-12-08T17:33:42.960Z,82.92
2022-12-08T17:36:45.149Z,84.17
2022-12-08T17:39:47.604Z,84.17
2022-12-08T17:42:49.799Z,84.83
2022-12-08T17:45:52.294Z,83.33
2022-12-08T17:48:54.495Z,83.41
2022-12-08T17:52:03.276Z,84.88
2022-12-08T17:55:06.102Z,85.04
2022-12-08T17:58:08.556Z,83.22
2022-12-08T18:01:11.588Z,83.48
2022-12-08T18:04:14.122Z,82.00
2022-12-08T18:07:16.257Z,83.04
2022-12-08T18:10:19.486Z,83.27
2022-12-08T18:13:21.679Z,83.37
2022-12-08T18:16:26.821Z,83.30
2022-12-08T18:19:28.995Z,81.74
2022-12-08T18:22:31.372Z,82.38
2022-12-08T18:25:33.442Z,82.46
2022-12-08T18:28:36.217Z,81.69
2022-12-08T18:31:38.374Z,82.03
2022-12-08T18:34:41.575Z,79.90
2022-12-08T18:37:43.769Z,80.73
2022-12-08T18:40:46.230Z,81.15
2022-12-08T18:43:48.668Z,79.90
2022-12-08T18:46:51.314Z,80.21
2022-12-08T18:49:53.490Z,80.31
2022-12-08T18:52:55.944Z,80.32
2022-12-08T18:55:58.221Z,80.07
2022-12-08T18:59:04.458Z,79.68
2022-12-08T19:02:07.148Z,80.06
2022-12-08T19:05:12.505Z,81.33
2022-12-08T19:08:14.789Z,79.11
2022-12-08T19:11:22.350Z,78.60
2022-12-08T19:14:28.114Z,78.12
2022-12-08T19:17:31.273Z,79.45
2022-12-08T19:20:33.409Z,78.29
2022-12-08T19:23:36.261Z,79.79
2022-12-08T19:26:38.594Z,79.72
2022-12-08T19:29:41.017Z,80.16
2022-12-08T19:32:43.272Z,80.05
2022-12-08T19:35:52.209Z,80.51
2022-12-08T19:39:15.318Z,80.66
2022-12-08T19:42:38.248Z,80.08
2022-12-08T19:45:40.642Z,82.57
2022-12-08T19:48:43.552Z,81.92
2022-12-08T19:51:45.677Z,80.78
2022-12-08T19:54:48.156Z,80.59
2022-12-08T19:57:51.297Z,81.27
2022-12-08T20:00:53.809Z,80.42
2022-12-08T20:03:56.203Z,80.87
2022-12-08T20:06:58.415Z,80.49
2022-12-08T20:10:02.435Z,81.89
2022-12-08T20:13:24.756Z,81.59
2022-12-08T20:16:27.412Z,81.27
2022-12-08T20:19:29.655Z,80.15
2022-12-08T20:22:32.098Z,80.46
2022-12-08T20:25:34.771Z,80.63
2022-12-08T20:28:37.542Z,80.25
2022-12-08T20:31:39.757Z,81.06
2022-12-08T20:34:42.323Z,83.50
2022-12-08T20:37:44.495Z,81.58
2022-12-08T20:40:47.522Z,80.67
2022-12-08T20:43:50.079Z,82.40
2022-12-08T20:46:52.535Z,83.12
2022-12-08T20:49:54.815Z,82.86
2022-12-08T20:52:57.404Z,81.14
2022-12-08T20:55:59.847Z,81.63
2022-12-08T20:59:02.446Z,82.28
2022-12-08T21:02:04.868Z,82.31
2022-12-08T21:05:08.927Z,83.36
2022-12-08T21:08:11.255Z,83.04
2022-12-08T21:11:13.962Z,83.10
2022-12-08T21:14:16.200Z,83.25
2022-12-08T21:17:18.727Z,84.11
2022-12-08T21:20:23.727Z,84.31
2022-12-08T21:23:26.201Z,82.86
2022-12-08T21:26:28.836Z,83.52
2022-12-08T21:29:31.591Z,83.88
2022-12-08T21:32:34.503Z,84.04
2022-12-08T21:35:37.604Z,84.00
2022-12-08T21:38:40.552Z,84.27
2022-12-08T21:42:01.943Z,85.15
2022-12-08T21:45:04.275Z,85.51
2022-12-08T21:48:11.500Z,85.94
2022-12-08T21:51:14.236Z,85.53
2022-12-08T21:54:19.200Z,86.54
2022-12-08T21:57:21.879Z,87.14
2022-12-08T22:00:24.774Z,87.28
2022-12-08T22:03:28.110Z,86.38
2022-12-08T22:06:30.813Z,87.22
2022-12-08T22:09:33.429Z,87.42
2022-12-08T22:12:36.904Z,89.28
2022-12-08T22:15:39.629Z,88.45
2022-12-08T22:18:42.515Z,87.73
2022-12-08T22:21:45.083Z,86.82
2022-12-08T22:24:47.533Z,87.07
2022-12-08T22:27:50.142Z,87.54
2022-12-08T22:30:52.459Z,86.25
2022-12-08T22:33:55.015Z,87.36
2022-12-08T22:36:57.140Z,85.49
2022-12-08T22:39:59.796Z,86.20
2022-12-08T22:43:01.886Z,88.14
2022-12-08T22:46:12.160Z,88.40
2022-12-08T22:49:14.923Z,88.37
2022-12-08T22:52:17.380Z,89.44
2022-12-08T22:55:19.515Z,89.08
2022-12-08T22:58:22.277Z,88.90
2022-12-08T23:01:29.053Z,88.89
2022-12-08T23:04:32.054Z,89.99
2022-12-08T23:07:34.356Z,89.82
2022-12-08T23:10:36.812Z,88.96
2022-12-08T23:13:39.895Z,87.83
2022-12-08T23:16:42.650Z,88.37
2022-12-08T23:19:44.866Z,88.79
2022-12-08T23:22:47.393Z,90.64
2022-12-08T23:25:49.750Z,90.47
2022-12-08T23:28:52.766Z,89.50
2022-12-08T23:31:55.086Z,90.62
2022-12-08T23:34:57.889Z,89.07
2022-12-08T23:38:00.315Z,90.42
2022-12-08T23:41:05.590Z,89.91
2022-12-08T23:44:09.119Z,89.47
2022-12-08T23:47:11.910Z,87.77
2022-12-08T23:50:14.085Z,89.45
2022-12-08T23:53:17.009Z,89.39
2022-12-08T23:56:21.065Z,89.97
2022-12-08T23:59:24.770Z,88.96
